New Washington, Ohio
Current Conditions -  °F | °C
As of 3:52 AM on Wednesday 22 Oct 2014 (Local Time) from KMFD Reporting Station
Overcast Overcast  
Wind Chill: 39°   Ceiling: 800
Heat Index: 44°   Visibility: 7mi
Dew Point: 44°   Wind: 9mph
Humidity: 100%   Direction: 320°NW
Pressure: 30.14"   Gusts: NA
Location:  40.96°N, 82.85°W
Report Text: KMFD 220752Z AUTO 32008KT 7SM BKN008 BKN014 OVC022 07/07 A3014 RMK AO2 CIG 006V012 SLP211 T00670067
Loading
Personal Weather Stations






























Interactive Weather Map
Tropical Storm Tracking
New forecast layout! Learn more

10-Day Weather Forecast

Advertisements
Track Severe Weather on mobile